sensor_id;sensor_type;location;lat;lon;timestamp;pressure;altitude;pressure_sealevel;temperature;humidity
57232;BME280;43488;46.934;8.276;2023-03-31T00:00:53;96088.38;;;9.38;98.85
57232;BME280;43488;46.934;8.276;2023-03-31T00:03:24;96097.03;;;9.46;99.63
57232;BME280;43488;46.934;8.276;2023-03-31T00:05:59;96094.16;;;9.54;99.34
57232;BME280;43488;46.934;8.276;2023-03-31T00:08:29;96117.59;;;9.55;99.39
57232;BME280;43488;46.934;8.276;2023-03-31T00:11:05;96136.00;;;9.55;99.65
57232;BME280;43488;46.934;8.276;2023-03-31T00:13:33;96129.28;;;9.59;99.26
57232;BME280;43488;46.934;8.276;2023-03-31T00:16:05;96116.38;;;9.58;99.54
57232;BME280;43488;46.934;8.276;2023-03-31T00:18:32;96104.03;;;9.58;99.52
57232;BME280;43488;46.934;8.276;2023-03-31T00:21:13;96093.31;;;9.60;99.96
57232;BME280;43488;46.934;8.276;2023-03-31T00:23:53;96085.06;;;9.56;100.00
57232;BME280;43488;46.934;8.276;2023-03-31T00:26:21;96100.66;;;9.51;100.00
57232;BME280;43488;46.934;8.276;2023-03-31T00:28:49;96081.06;;;9.47;100.00
57232;BME280;43488;46.934;8.276;2023-03-31T00:31:17;96057.78;;;9.51;100.00
57232;BME280;43488;46.934;8.276;2023-03-31T00:33:45;96063.81;;;9.58;99.73
57232;BME280;43488;46.934;8.276;2023-03-31T00:36:12;96073.16;;;9.54;99.73
57232;BME280;43488;46.934;8.276;2023-03-31T00:38:47;96073.13;;;9.60;99.62
57232;BME280;43488;46.934;8.276;2023-03-31T00:41:15;96067.03;;;9.60;99.84
57232;BME280;43488;46.934;8.276;2023-03-31T00:46:55;96052.50;;;9.57;100.00
57232;BME280;43488;46.934;8.276;2023-03-31T00:49:38;96045.66;;;9.50;100.00
57232;BME280;43488;46.934;8.276;2023-03-31T00:52:17;96042.44;;;9.48;100.00
57232;BME280;43488;46.934;8.276;2023-03-31T00:54:57;96035.78;;;9.52;100.00
57232;BME280;43488;46.934;8.276;2023-03-31T00:57:27;96029.72;;;9.51;100.00
57232;BME280;43488;46.934;8.276;2023-03-31T01:00:05;96024.25;;;9.53;100.00
57232;BME280;43488;46.934;8.276;2023-03-31T01:02:45;96015.13;;;9.55;100.00
57232;BME280;43488;46.934;8.276;2023-03-31T01:08:04;96002.75;;;9.62;99.84
57232;BME280;43488;46.934;8.276;2023-03-31T01:10:40;95999.94;;;9.57;99.79
57232;BME280;43488;46.934;8.276;2023-03-31T01:13:11;96010.31;;;9.52;99.76
57232;BME280;43488;46.934;8.276;2023-03-31T01:15:39;96005.63;;;9.54;99.19
57232;BME280;43488;46.934;8.276;2023-03-31T01:18:08;96004.41;;;9.57;99.42
57232;BME280;43488;46.934;8.276;2023-03-31T01:20:54;95992.84;;;9.58;99.51
57232;BME280;43488;46.934;8.276;2023-03-31T01:32:59;95980.31;;;9.60;99.84
57232;BME280;43488;46.934;8.276;2023-03-31T01:35:53;95981.31;;;9.59;99.82
57232;BME280;43488;46.934;8.276;2023-03-31T01:42:05;95994.34;;;9.47;100.00
57232;BME280;43488;46.934;8.276;2023-03-31T01:47:26;95981.06;;;9.42;100.00
57232;BME280;43488;46.934;8.276;2023-03-31T01:52:49;95979.03;;;9.44;100.00
57232;BME280;43488;46.934;8.276;2023-03-31T01:58:52;95968.44;;;9.51;100.00
57232;BME280;43488;46.934;8.276;2023-03-31T02:01:35;95968.44;;;9.51;100.00
57232;BME280;43488;46.934;8.276;2023-03-31T02:04:25;95988.34;;;9.40;100.00
57232;BME280;43488;46.934;8.276;2023-03-31T02:07:02;95987.75;;;9.38;100.00
57232;BME280;43488;46.934;8.276;2023-03-31T02:09:35;95988.34;;;9.40;100.00
57232;BME280;43488;46.934;8.276;2023-03-31T02:12:09;95998.84;;;9.40;100.00
57232;BME280;43488;46.934;8.276;2023-03-31T02:14:42;95985.47;;;9.41;100.00
57232;BME280;43488;46.934;8.276;2023-03-31T02:17:16;95978.63;;;9.40;100.00
57232;BME280;43488;46.934;8.276;2023-03-31T02:19:49;95947.09;;;9.40;100.00
57232;BME280;43488;46.934;8.276;2023-03-31T02:22:20;95942.25;;;9.44;100.00
57232;BME280;43488;46.934;8.276;2023-03-31T02:24:51;95956.56;;;9.48;100.00
57232;BME280;43488;46.934;8.276;2023-03-31T02:27:42;95959.66;;;9.38;100.00
57232;BME280;43488;46.934;8.276;2023-03-31T02:30:13;95959.03;;;9.43;100.00
57232;BME280;43488;46.934;8.276;2023-03-31T02:32:43;95953.56;;;9.45;100.00
57232;BME280;43488;46.934;8.276;2023-03-31T02:35:18;95951.16;;;9.43;100.00
57232;BME280;43488;46.934;8.276;2023-03-31T02:37:48;95938.00;;;9.43;100.00
57232;BME280;43488;46.934;8.276;2023-03-31T02:40:21;95951.72;;;9.45;100.00
57232;BME280;43488;46.934;8.276;2023-03-31T02:42:51;95958.25;;;9.36;100.00
57232;BME280;43488;46.934;8.276;2023-03-31T02:45:49;95949.34;;;9.37;100.00
57232;BME280;43488;46.934;8.276;2023-03-31T02:48:31;95937.63;;;9.39;100.00
57232;BME280;43488;46.934;8.276;2023-03-31T02:54:32;95923.69;;;9.39;100.00
57232;BME280;43488;46.934;8.276;2023-03-31T03:00:36;95888.72;;;9.38;100.00
57232;BME280;43488;46.934;8.276;2023-03-31T03:03:26;95874.75;;;9.45;100.00
57232;BME280;43488;46.934;8.276;2023-03-31T03:09:24;95854.63;;;9.32;100.00
57232;BME280;43488;46.934;8.276;2023-03-31T03:12:25;95853.22;;;9.29;100.00
57232;BME280;43488;46.934;8.276;2023-03-31T03:15:05;95842.94;;;9.28;100.00
57232;BME280;43488;46.934;8.276;2023-03-31T03:17:42;95838.13;;;9.25;100.00
57232;BME280;43488;46.934;8.276;2023-03-31T03:20:13;95837.69;;;9.28;100.00
57232;BME280;43488;46.934;8.276;2023-03-31T03:22:42;95830.31;;;9.18;100.00
57232;BME280;43488;46.934;8.276;2023-03-31T03:25:13;95823.28;;;9.12;100.00
57232;BME280;43488;46.934;8.276;2023-03-31T03:27:43;95822.63;;;9.17;100.00
57232;BME280;43488;46.934;8.276;2023-03-31T03:30:12;95832.13;;;9.18;100.00
57232;BME280;43488;46.934;8.276;2023-03-31T03:32:40;95826.69;;;9.12;100.00
57232;BME280;43488;46.934;8.276;2023-03-31T03:35:09;95806.34;;;9.08;100.00
57232;BME280;43488;46.934;8.276;2023-03-31T03:37:38;95785.34;;;9.08;100.00
57232;BME280;43488;46.934;8.276;2023-03-31T03:40:06;95784.53;;;9.07;100.00
57232;BME280;43488;46.934;8.276;2023-03-31T03:42:34;95769.00;;;9.06;100.00
57232;BME280;43488;46.934;8.276;2023-03-31T03:45:03;95765.38;;;9.07;100.00
57232;BME280;43488;46.934;8.276;2023-03-31T03:47:30;95738.22;;;9.13;100.00
57232;BME280;43488;46.934;8.276;2023-03-31T03:49:58;95726.50;;;9.16;100.00
57232;BME280;43488;46.934;8.276;2023-03-31T03:52:25;95715.03;;;9.10;100.00
57232;BME280;43488;46.934;8.276;2023-03-31T03:54:53;95714.81;;;9.11;100.00
57232;BME280;43488;46.934;8.276;2023-03-31T03:57:20;95710.59;;;9.10;100.00
57232;BME280;43488;46.934;8.276;2023-03-31T03:59:47;95698.53;;;9.03;100.00
57232;BME280;43488;46.934;8.276;2023-03-31T04:02:15;95699.72;;;9.07;100.00
57232;BME280;43488;46.934;8.276;2023-03-31T04:04:42;95685.94;;;9.11;100.00
57232;BME280;43488;46.934;8.276;2023-03-31T04:07:09;95669.16;;;9.12;100.00
57232;BME280;43488;46.934;8.276;2023-03-31T04:09:37;95664.91;;;9.11;100.00
57232;BME280;43488;46.934;8.276;2023-03-31T04:12:05;95661.72;;;9.09;100.00
57232;BME280;43488;46.934;8.276;2023-03-31T04:14:33;95655.31;;;9.05;100.00
57232;BME280;43488;46.934;8.276;2023-03-31T04:17:00;95655.66;;;9.09;100.00
57232;BME280;43488;46.934;8.276;2023-03-31T04:19:28;95656.63;;;9.15;100.00
57232;BME280;43488;46.934;8.276;2023-03-31T04:21:56;95662.22;;;9.18;100.00
57232;BME280;43488;46.934;8.276;2023-03-31T04:24:28;95652.69;;;9.24;100.00
57232;BME280;43488;46.934;8.276;2023-03-31T04:26:59;95670.63;;;9.27;100.00
57232;BME280;43488;46.934;8.276;2023-03-31T04:29:27;95672.81;;;9.30;100.00
57232;BME280;43488;46.934;8.276;2023-03-31T04:31:55;95674.84;;;9.28;100.00
57232;BME280;43488;46.934;8.276;2023-03-31T04:34:27;95673.25;;;9.27;100.00
57232;BME280;43488;46.934;8.276;2023-03-31T04:37:01;95669.25;;;9.24;100.00
57232;BME280;43488;46.934;8.276;2023-03-31T04:39:29;95654.13;;;9.20;100.00
57232;BME280;43488;46.934;8.276;2023-03-31T04:41:59;95630.28;;;9.21;100.00
57232;BME280;43488;46.934;8.276;2023-03-31T04:44:28;95622.63;;;9.20;100.00
57232;BME280;43488;46.934;8.276;2023-03-31T04:46:55;95600.16;;;9.24;100.00
57232;BME280;43488;46.934;8.276;2023-03-31T04:49:24;95606.56;;;9.28;100.00
57232;BME280;43488;46.934;8.276;2023-03-31T04:51:51;95587.97;;;9.29;100.00
57232;BME280;43488;46.934;8.276;2023-03-31T04:54:19;95575.41;;;9.31;100.00
57232;BME280;43488;46.934;8.276;2023-03-31T04:56:46;95564.88;;;9.31;100.00
57232;BME280;43488;46.934;8.276;2023-03-31T04:59:14;95552.22;;;9.28;100.00
57232;BME280;43488;46.934;8.276;2023-03-31T05:01:41;95536.53;;;9.22;100.00
57232;BME280;43488;46.934;8.276;2023-03-31T05:04:10;95532.88;;;9.23;100.00
57232;BME280;43488;46.934;8.276;2023-03-31T05:06:38;95513.59;;;9.17;100.00
57232;BME280;43488;46.934;8.276;2023-03-31T05:09:05;95521.47;;;9.17;100.00
57232;BME280;43488;46.934;8.276;2023-03-31T05:11:33;95507.69;;;9.03;100.00
57232;BME280;43488;46.934;8.276;2023-03-31T05:14:00;95503.03;;;9.05;100.00
57232;BME280;43488;46.934;8.276;2023-03-31T05:16:27;95504.63;;;9.06;100.00
57232;BME280;43488;46.934;8.276;2023-03-31T05:18:55;95508.28;;;9.05;100.00
57232;BME280;43488;46.934;8.276;2023-03-31T05:21:22;95493.09;;;9.07;100.00
57232;BME280;43488;46.934;8.276;2023-03-31T05:23:50;95498.34;;;9.07;100.00
57232;BME280;43488;46.934;8.276;2023-03-31T05:26:17;95490.47;;;9.07;100.00
57232;BME280;43488;46.934;8.276;2023-03-31T05:28:45;95499.16;;;9.08;100.00
57232;BME280;43488;46.934;8.276;2023-03-31T05:31:13;95487.28;;;9.05;100.00
57232;BME280;43488;46.934;8.276;2023-03-31T05:33:40;95486.47;;;9.05;100.00
57232;BME280;43488;46.934;8.276;2023-03-31T05:36:11;95481.19;;;9.05;100.00
57232;BME280;43488;46.934;8.276;2023-03-31T05:38:39;95490.25;;;9.09;100.00
57232;BME280;43488;46.934;8.276;2023-03-31T05:41:08;95480.78;;;9.08;100.00
57232;BME280;43488;46.934;8.276;2023-03-31T05:43:38;95494.72;;;9.08;100.00
57232;BME280;43488;46.934;8.276;2023-03-31T05:46:05;95484.94;;;9.16;100.00
57232;BME280;43488;46.934;8.276;2023-03-31T05:48:34;95490.38;;;9.14;100.00
57232;BME280;43488;46.934;8.276;2023-03-31T05:51:03;95483.09;;;9.16;100.00
57232;BME280;43488;46.934;8.276;2023-03-31T05:53:31;95481.84;;;9.19;100.00
57232;BME280;43488;46.934;8.276;2023-03-31T05:56:02;95486.88;;;9.20;100.00
57232;BME280;43488;46.934;8.276;2023-03-31T05:58:32;95483.09;;;9.16;100.00
57232;BME280;43488;46.934;8.276;2023-03-31T06:01:15;95480.25;;;9.18;100.00
57232;BME280;43488;46.934;8.276;2023-03-31T06:03:49;95480.16;;;9.24;100.00
57232;BME280;43488;46.934;8.276;2023-03-31T06:06:16;95490.66;;;9.24;100.00
57232;BME280;43488;46.934;8.276;2023-03-31T06:08:46;95478.44;;;9.30;100.00
57232;BME280;43488;46.934;8.276;2023-03-31T06:11:16;95490.47;;;9.37;100.00
57232;BME280;43488;46.934;8.276;2023-03-31T06:13:45;95485.56;;;9.41;100.00
57232;BME280;43488;46.934;8.276;2023-03-31T06:16:15;95491.03;;;9.39;100.00
57232;BME280;43488;46.934;8.276;2023-03-31T06:18:44;95483.63;;;9.36;100.00
57232;BME280;43488;46.934;8.276;2023-03-31T06:21:14;95487.38;;;9.40;100.00
57232;BME280;43488;46.934;8.276;2023-03-31T06:23:44;95484.75;;;9.40;100.00
57232;BME280;43488;46.934;8.276;2023-03-31T06:26:17;95489.34;;;9.45;100.00
57232;BME280;43488;46.934;8.276;2023-03-31T06:28:45;95457.25;;;9.43;100.00
57232;BME280;43488;46.934;8.276;2023-03-31T06:31:16;95467.97;;;9.41;100.00
57232;BME280;43488;46.934;8.276;2023-03-31T06:33:43;95466.75;;;9.44;100.00
57232;BME280;43488;46.934;8.276;2023-03-31T06:36:14;95469.38;;;9.44;100.00
57232;BME280;43488;46.934;8.276;2023-03-31T06:38:42;95455.09;;;9.52;100.00
57232;BME280;43488;46.934;8.276;2023-03-31T06:41:14;95466.97;;;9.54;100.00
57232;BME280;43488;46.934;8.276;2023-03-31T06:43:42;95464.69;;;9.58;100.00
57232;BME280;43488;46.934;8.276;2023-03-31T06:46:10;95469.38;;;9.67;100.00
57232;BME280;43488;46.934;8.276;2023-03-31T06:48:37;95455.59;;;9.72;100.00
57232;BME280;43488;46.934;8.276;2023-03-31T06:51:06;95462.78;;;9.77;100.00
57232;BME280;43488;46.934;8.276;2023-03-31T06:53:34;95447.81;;;9.77;100.00
57232;BME280;43488;46.934;8.276;2023-03-31T06:56:03;95442.91;;;9.81;100.00
57232;BME280;43488;46.934;8.276;2023-03-31T06:58:32;95458.78;;;9.86;100.00
57232;BME280;43488;46.934;8.276;2023-03-31T07:01:02;95464.63;;;9.88;100.00
57232;BME280;43488;46.934;8.276;2023-03-31T07:03:31;95489.66;;;9.90;100.00
57232;BME280;43488;46.934;8.276;2023-03-31T07:05:58;95529.19;;;9.95;100.00
57232;BME280;43488;46.934;8.276;2023-03-31T07:08:26;95572.34;;;10.06;100.00
57232;BME280;43488;46.934;8.276;2023-03-31T07:10:58;95558.56;;;10.46;89.18
57232;BME280;43488;46.934;8.276;2023-03-31T07:13:26;95618.59;;;10.96;91.41
57232;BME280;43488;46.934;8.276;2023-03-31T07:15:54;95572.16;;;11.58;76.97
57232;BME280;43488;46.934;8.276;2023-03-31T07:18:22;95598.91;;;12.07;76.33
57232;BME280;43488;46.934;8.276;2023-03-31T07:20:58;95573.22;;;12.03;78.31
57232;BME280;43488;46.934;8.276;2023-03-31T07:23:26;95565.31;;;12.03;77.42
57232;BME280;43488;46.934;8.276;2023-03-31T07:25:55;95568.84;;;12.08;78.73
57232;BME280;43488;46.934;8.276;2023-03-31T07:28:22;95568.50;;;12.05;78.36
57232;BME280;43488;46.934;8.276;2023-03-31T07:30:49;95587.75;;;12.05;79.73
57232;BME280;43488;46.934;8.276;2023-03-31T07:33:19;95584.50;;;12.15;79.37
57232;BME280;43488;46.934;8.276;2023-03-31T07:35:46;95561.88;;;12.19;81.39
57232;BME280;43488;46.934;8.276;2023-03-31T07:38:14;95581.06;;;12.14;83.31
57232;BME280;43488;46.934;8.276;2023-03-31T07:40:43;95585.09;;;12.17;84.17
57232;BME280;43488;46.934;8.276;2023-03-31T07:43:12;95568.22;;;12.18;83.27
57232;BME280;43488;46.934;8.276;2023-03-31T07:45:41;95557.97;;;12.21;83.35
57232;BME280;43488;46.934;8.276;2023-03-31T07:48:09;95569.41;;;12.27;82.85
57232;BME280;43488;46.934;8.276;2023-03-31T07:50:37;95617.59;;;12.22;82.87
57232;BME280;43488;46.934;8.276;2023-03-31T07:53:04;95625.44;;;12.17;83.72
57232;BME280;43488;46.934;8.276;2023-03-31T07:55:32;95622.81;;;12.34;83.46
57232;BME280;43488;46.934;8.276;2023-03-31T07:57:59;95599.38;;;12.21;85.64
57232;BME280;43488;46.934;8.276;2023-03-31T08:00:27;95606.88;;;12.12;85.31
57232;BME280;43488;46.934;8.276;2023-03-31T08:02:55;95629.66;;;12.02;82.09
57232;BME280;43488;46.934;8.276;2023-03-31T08:05:23;95740.56;;;12.35;63.05
57232;BME280;43488;46.934;8.276;2023-03-31T08:07:51;95657.94;;;12.35;60.32
57232;BME280;43488;46.934;8.276;2023-03-31T08:10:25;95662.88;;;12.31;60.74
57232;BME280;43488;46.934;8.276;2023-03-31T08:12:54;95636.19;;;12.44;57.50
57232;BME280;43488;46.934;8.276;2023-03-31T08:15:22;95668.88;;;12.43;59.96
57232;BME280;43488;46.934;8.276;2023-03-31T08:17:50;95690.88;;;12.32;62.40
57232;BME280;43488;46.934;8.276;2023-03-31T08:20:18;95702.78;;;12.18;67.50
57232;BME280;43488;46.934;8.276;2023-03-31T08:22:46;95667.50;;;12.07;71.08
57232;BME280;43488;46.934;8.276;2023-03-31T08:25:13;95669.03;;;11.91;73.22
57232;BME280;43488;46.934;8.276;2023-03-31T08:27:40;95657.03;;;11.84;75.79
57232;BME280;43488;46.934;8.276;2023-03-31T08:30:10;95638.69;;;11.77;78.06
57232;BME280;43488;46.934;8.276;2023-03-31T08:32:38;95635.78;;;11.79;83.49
57232;BME280;43488;46.934;8.276;2023-03-31T08:35:06;95627.69;;;11.80;86.06
57232;BME280;43488;46.934;8.276;2023-03-31T08:37:36;95629.66;;;11.73;88.89
57232;BME280;43488;46.934;8.276;2023-03-31T08:40:05;95624.03;;;11.69;91.12
57232;BME280;43488;46.934;8.276;2023-03-31T08:42:42;95626.22;;;11.73;91.38
57232;BME280;43488;46.934;8.276;2023-03-31T08:45:34;95619.34;;;11.72;92.27
57232;BME280;43488;46.934;8.276;2023-03-31T08:48:19;95621.31;;;11.64;93.81
57232;BME280;43488;46.934;8.276;2023-03-31T08:50:53;95606.78;;;11.62;93.43
57232;BME280;43488;46.934;8.276;2023-03-31T08:53:32;95605.88;;;11.56;93.09
57232;BME280;43488;46.934;8.276;2023-03-31T08:56:04;95605.88;;;11.56;94.13
57232;BME280;43488;46.934;8.276;2023-03-31T08:58:42;95611.69;;;11.58;89.03
57232;BME280;43488;46.934;8.276;2023-03-31T09:07:56;95600.38;;;11.86;87.57
57232;BME280;43488;46.934;8.276;2023-03-31T09:18:47;95558.34;;;11.96;87.14
57232;BME280;43488;46.934;8.276;2023-03-31T09:21:36;95560.94;;;12.08;88.09
57232;BME280;43488;46.934;8.276;2023-03-31T09:24:35;95552.94;;;12.20;86.82
57232;BME280;43488;46.934;8.276;2023-03-31T09:27:11;95565.97;;;12.27;81.71
57232;BME280;43488;46.934;8.276;2023-03-31T09:29:54;95558.44;;;12.35;78.11
57232;BME280;43488;46.934;8.276;2023-03-31T09:32:28;95567.22;;;12.41;76.44
57232;BME280;43488;46.934;8.276;2023-03-31T09:35:17;95593.97;;;12.44;74.89
57232;BME280;43488;46.934;8.276;2023-03-31T09:37:45;95604.03;;;12.47;73.50
57232;BME280;43488;46.934;8.276;2023-03-31T09:40:19;95579.78;;;12.50;71.23
57232;BME280;43488;46.934;8.276;2023-03-31T09:43:00;95546.59;;;12.55;72.63
57232;BME280;43488;46.934;8.276;2023-03-31T09:45:29;95565.22;;;12.48;74.31
57232;BME280;43488;46.934;8.276;2023-03-31T09:48:06;95576.84;;;12.47;73.53
57232;BME280;43488;46.934;8.276;2023-03-31T09:50:57;95569.63;;;12.42;76.06
57232;BME280;43488;46.934;8.276;2023-03-31T09:56:04;95613.13;;;12.23;79.26
57232;BME280;43488;46.934;8.276;2023-03-31T09:58:43;95595.78;;;12.27;78.21
57232;BME280;43488;46.934;8.276;2023-03-31T10:01:13;95583.31;;;12.22;78.14
57232;BME280;43488;46.934;8.276;2023-03-31T10:03:58;95587.72;;;12.17;74.06
57232;BME280;43488;46.934;8.276;2023-03-31T10:06:27;95587.22;;;12.20;73.69
57232;BME280;43488;46.934;8.276;2023-03-31T10:08:58;95579.88;;;12.22;72.50
57232;BME280;43488;46.934;8.276;2023-03-31T10:11:28;95626.00;;;12.19;73.08
57232;BME280;43488;46.934;8.276;2023-03-31T10:14:13;95595.78;;;12.27;73.24
57232;BME280;43488;46.934;8.276;2023-03-31T10:16:52;95567.72;;;12.55;71.91
57232;BME280;43488;46.934;8.276;2023-03-31T10:19:21;95574.19;;;12.64;73.41
57232;BME280;43488;46.934;8.276;2023-03-31T10:22:04;95543.53;;;12.63;71.05
57232;BME280;43488;46.934;8.276;2023-03-31T10:24:40;95500.78;;;12.66;62.27
57232;BME280;43488;46.934;8.276;2023-03-31T10:27:26;95529.19;;;12.75;60.56
57232;BME280;43488;46.934;8.276;2023-03-31T10:29:58;95491.91;;;12.72;62.49
57232;BME280;43488;46.934;8.276;2023-03-31T10:32:31;95508.47;;;12.67;64.53
57232;BME280;43488;46.934;8.276;2023-03-31T10:35:30;95542.41;;;12.59;66.95
57232;BME280;43488;46.934;8.276;2023-03-31T10:38:07;95547.38;;;12.55;66.94
57232;BME280;43488;46.934;8.276;2023-03-31T10:40:37;95555.31;;;12.55;66.12
57232;BME280;43488;46.934;8.276;2023-03-31T10:43:16;95612.09;;;12.58;65.96
57232;BME280;43488;46.934;8.276;2023-03-31T10:45:48;95590.63;;;12.71;60.91
57232;BME280;43488;46.934;8.276;2023-03-31T10:48:19;95553.25;;;12.79;60.44
57232;BME280;43488;46.934;8.276;2023-03-31T10:50:49;95542.25;;;12.87;53.17
57232;BME280;43488;46.934;8.276;2023-03-31T10:53:18;95513.31;;;12.97;56.07
57232;BME280;43488;46.934;8.276;2023-03-31T10:59:02;95485.22;;;13.08;55.88
57232;BME280;43488;46.934;8.276;2023-03-31T11:14:23;95513.81;;;13.92;58.41
57232;BME280;43488;46.934;8.276;2023-03-31T11:22:47;95529.19;;;13.68;58.44
57232;BME280;43488;46.934;8.276;2023-03-31T11:25:44;95578.44;;;13.47;59.32
57232;BME280;43488;46.934;8.276;2023-03-31T11:28:33;95524.91;;;13.35;59.86
57232;BME280;43488;46.934;8.276;2023-03-31T11:32:24;95508.66;;;13.48;59.61
57232;BME280;43488;46.934;8.276;2023-03-31T11:41:12;95455.06;;;13.90;60.20
57232;BME280;43488;46.934;8.276;2023-03-31T11:43:54;95451.97;;;14.03;58.83
57232;BME280;43488;46.934;8.276;2023-03-31T11:46:55;95468.00;;;13.86;58.29
57232;BME280;43488;46.934;8.276;2023-03-31T11:49:36;95452.63;;;13.83;60.12
57232;BME280;43488;46.934;8.276;2023-03-31T11:52:16;95469.97;;;13.69;57.93
57232;BME280;43488;46.934;8.276;2023-03-31T12:00:28;95484.75;;;13.38;56.46
57232;BME280;43488;46.934;8.276;2023-03-31T12:03:23;95574.25;;;13.07;57.26
57232;BME280;43488;46.934;8.276;2023-03-31T12:06:16;95518.56;;;13.14;59.23
57232;BME280;43488;46.934;8.276;2023-03-31T12:08:46;95494.56;;;13.70;63.07
57232;BME280;43488;46.934;8.276;2023-03-31T12:11:31;95465.34;;;13.86;57.79
57232;BME280;43488;46.934;8.276;2023-03-31T12:17:26;95473.34;;;13.91;56.25
57232;BME280;43488;46.934;8.276;2023-03-31T12:19:58;95469.63;;;13.92;54.24
57232;BME280;43488;46.934;8.276;2023-03-31T12:22:30;95486.81;;;13.90;52.45
57232;BME280;43488;46.934;8.276;2023-03-31T12:24:59;95459.00;;;13.87;52.76
57232;BME280;43488;46.934;8.276;2023-03-31T12:27:39;95485.88;;;13.74;52.38
57232;BME280;43488;46.934;8.276;2023-03-31T12:30:22;95516.69;;;13.58;53.31
57232;BME280;43488;46.934;8.276;2023-03-31T12:33:00;95530.34;;;13.50;55.45
57232;BME280;43488;46.934;8.276;2023-03-31T12:36:15;95533.59;;;13.57;56.46
57232;BME280;43488;46.934;8.276;2023-03-31T12:42:00;95613.31;;;13.05;54.75
57232;BME280;43488;46.934;8.276;2023-03-31T12:53:23;95578.19;;;12.16;55.31
57232;BME280;43488;46.934;8.276;2023-03-31T12:55:56;95552.53;;;12.28;60.58
57232;BME280;43488;46.934;8.276;2023-03-31T13:01:10;95568.47;;;11.88;62.86
57232;BME280;43488;46.934;8.276;2023-03-31T13:09:02;95626.19;;;11.44;69.96
57232;BME280;43488;46.934;8.276;2023-03-31T13:14:22;95660.03;;;11.12;71.33
57232;BME280;43488;46.934;8.276;2023-03-31T13:16:52;95673.09;;;10.95;70.66
57232;BME280;43488;46.934;8.276;2023-03-31T13:19:39;95706.75;;;10.81;73.93
57232;BME280;43488;46.934;8.276;2023-03-31T13:28:10;95709.25;;;9.93;81.80
57232;BME280;43488;46.934;8.276;2023-03-31T13:33:18;95738.06;;;9.69;79.74
57232;BME280;43488;46.934;8.276;2023-03-31T13:36:22;95730.75;;;9.53;81.50
57232;BME280;43488;46.934;8.276;2023-03-31T13:42:34;95673.19;;;9.15;89.06
57232;BME280;43488;46.934;8.276;2023-03-31T13:45:52;95646.31;;;9.13;91.18
57232;BME280;43488;46.934;8.276;2023-03-31T13:51:51;95617.81;;;9.17;88.89
57232;BME280;43488;46.934;8.276;2023-03-31T13:54:49;95598.47;;;9.29;86.21
57232;BME280;43488;46.934;8.276;2023-03-31T14:06:39;95574.09;;;10.71;79.06
57232;BME280;43488;46.934;8.276;2023-03-31T14:09:34;95574.16;;;11.11;78.95
57232;BME280;43488;46.934;8.276;2023-03-31T14:12:35;95570.66;;;11.62;78.77
57232;BME280;43488;46.934;8.276;2023-03-31T14:15:06;95561.06;;;11.85;74.11
57232;BME280;43488;46.934;8.276;2023-03-31T14:17:37;95549.66;;;12.13;74.32
57232;BME280;43488;46.934;8.276;2023-03-31T14:20:50;95547.94;;;12.40;70.13
57232;BME280;43488;46.934;8.276;2023-03-31T14:24:27;95539.78;;;12.59;67.03
57232;BME280;43488;46.934;8.276;2023-03-31T14:26:57;95535.66;;;12.68;64.96
57232;BME280;43488;46.934;8.276;2023-03-31T14:29:55;95510.75;;;13.02;64.39
57232;BME280;43488;46.934;8.276;2023-03-31T14:33:08;95504.84;;;13.39;62.48
57232;BME280;43488;46.934;8.276;2023-03-31T14:39:09;95471.59;;;13.75;58.78
57232;BME280;43488;46.934;8.276;2023-03-31T14:41:39;95460.66;;;13.99;57.21
57232;BME280;43488;46.934;8.276;2023-03-31T14:44:13;95460.41;;;14.42;55.24
57232;BME280;43488;46.934;8.276;2023-03-31T14:46:41;95444.69;;;14.68;52.89
57232;BME280;43488;46.934;8.276;2023-03-31T14:49:27;95445.59;;;14.94;52.28
57232;BME280;43488;46.934;8.276;2023-03-31T14:52:00;95456.13;;;14.73;51.71
57232;BME280;43488;46.934;8.276;2023-03-31T14:54:35;95438.44;;;14.94;51.88
57232;BME280;43488;46.934;8.276;2023-03-31T14:57:05;95443.50;;;15.06;51.97
57232;BME280;43488;46.934;8.276;2023-03-31T14:59:34;95449.66;;;15.22;53.11
57232;BME280;43488;46.934;8.276;2023-03-31T15:02:06;95432.69;;;15.28;52.83
57232;BME280;43488;46.934;8.276;2023-03-31T15:04:40;95440.06;;;15.00;53.82
57232;BME280;43488;46.934;8.276;2023-03-31T15:07:12;95431.81;;;14.92;48.80
57232;BME280;43488;46.934;8.276;2023-03-31T15:09:48;95412.88;;;14.58;49.29
57232;BME280;43488;46.934;8.276;2023-03-31T15:12:19;95400.66;;;14.51;49.69
57232;BME280;43488;46.934;8.276;2023-03-31T15:14:55;95389.97;;;14.36;48.39
57232;BME280;43488;46.934;8.276;2023-03-31T15:17:38;95388.09;;;14.27;47.74
57232;BME280;43488;46.934;8.276;2023-03-31T15:20:36;95401.81;;;14.23;49.97
57232;BME280;43488;46.934;8.276;2023-03-31T15:23:25;95397.47;;;14.02;50.40
57232;BME280;43488;46.934;8.276;2023-03-31T15:26:03;95413.16;;;13.77;50.90
57232;BME280;43488;46.934;8.276;2023-03-31T15:28:51;95479.91;;;13.57;52.45
57232;BME280;43488;46.934;8.276;2023-03-31T15:31:19;95568.91;;;13.24;54.57
57232;BME280;43488;46.934;8.276;2023-03-31T15:33:47;95621.63;;;12.59;61.86
57232;BME280;43488;46.934;8.276;2023-03-31T15:36:15;95650.31;;;11.64;59.51
57232;BME280;43488;46.934;8.276;2023-03-31T15:38:42;95673.47;;;11.51;66.70
57232;BME280;43488;46.934;8.276;2023-03-31T15:41:13;95673.00;;;11.02;66.34
57232;BME280;43488;46.934;8.276;2023-03-31T15:43:49;95659.81;;;10.78;66.11
57232;BME280;43488;46.934;8.276;2023-03-31T15:46:44;95708.56;;;10.69;64.01
57232;BME280;43488;46.934;8.276;2023-03-31T15:49:21;95652.59;;;10.50;67.69
57232;BME280;43488;46.934;8.276;2023-03-31T15:51:50;95646.50;;;10.27;70.64
57232;BME280;43488;46.934;8.276;2023-03-31T15:54:39;95629.91;;;9.96;73.50
57232;BME280;43488;46.934;8.276;2023-03-31T15:57:08;95616.50;;;9.86;72.21
57232;BME280;43488;46.934;8.276;2023-03-31T15:59:51;95618.72;;;9.89;72.08
57232;BME280;43488;46.934;8.276;2023-03-31T16:02:38;95622.13;;;9.89;70.93
57232;BME280;43488;46.934;8.276;2023-03-31T16:05:24;95621.19;;;9.84;70.92